createdAt,value
2023-05-05T00:04:41.885Z,12.50
2023-05-05T00:19:43.530Z,12.60
2023-05-05T00:34:45.185Z,11.37
2023-05-05T00:49:47.109Z,11.40
2023-05-05T01:04:49.015Z,11.50
2023-05-05T01:20:29.084Z,12.17
2023-05-05T01:35:41.973Z,10.50
2023-05-05T01:50:46.753Z,12.70
2023-05-05T02:05:50.058Z,9.87
2023-05-05T02:35:58.088Z,10.90
2023-05-05T02:50:59.781Z,11.67
2023-05-05T03:06:07.572Z,13.73
2023-05-05T03:21:09.632Z,10.47
2023-05-05T03:36:11.344Z,9.93
2023-05-05T03:51:13.442Z,10.83
2023-05-05T04:06:15.065Z,11.13
2023-05-05T04:21:16.689Z,12.77
2023-05-05T04:36:19.198Z,12.97
2023-05-05T04:51:20.862Z,13.67
2023-05-05T05:06:22.746Z,11.83
2023-05-05T05:21:24.385Z,13.93
2023-05-05T05:36:26.335Z,12.57
2023-05-05T05:51:27.967Z,13.90
2023-05-05T06:06:29.666Z,14.43
2023-05-05T06:21:31.318Z,14.13
2023-05-05T06:36:33.031Z,13.47
2023-05-05T06:51:35.561Z,15.50
2023-05-05T07:06:37.234Z,14.90
2023-05-05T07:21:39.749Z,15.27
2023-05-05T07:51:43.888Z,15.50
2023-05-05T08:06:45.650Z,18.03
2023-05-05T08:21:47.366Z,18.13
2023-05-05T08:36:50.952Z,21.23
2023-05-05T08:51:54.707Z,20.53
2023-05-05T09:06:58.561Z,22.03
2023-05-05T09:22:00.502Z,20.40
2023-05-05T09:37:02.194Z,23.77
2023-05-05T09:52:16.482Z,19.37
2023-05-05T10:07:27.541Z,23.73
2023-05-05T10:22:32.925Z,24.87
2023-05-05T10:37:37.663Z,24.90
2023-05-05T10:53:13.053Z,26.07
2023-05-05T11:08:36.020Z,29.07
2023-05-05T11:23:38.185Z,25.37
2023-05-05T11:39:00.435Z,26.07
2023-05-05T11:54:02.186Z,26.10
2023-05-05T12:25:37.058Z,27.30
2023-05-05T12:40:53.953Z,25.03
2023-05-05T12:55:55.658Z,27.30
2023-05-05T13:10:58.413Z,26.23
2023-05-05T13:26:00.182Z,24.97
2023-05-05T13:41:02.117Z,24.13
2023-05-05T13:56:04.301Z,23.43
2023-05-05T14:11:06.060Z,22.60
2023-05-05T14:26:09.049Z,23.33
2023-05-05T14:41:11.051Z,23.97
2023-05-05T14:56:12.888Z,23.63
2023-05-05T15:11:14.593Z,21.77
2023-05-05T15:26:16.507Z,22.43
2023-05-05T15:41:18.296Z,20.13
2023-05-05T15:56:20.230Z,23.07
2023-05-05T16:11:23.625Z,21.13
2023-05-05T16:26:25.610Z,24.87
2023-05-05T16:41:27.588Z,21.70
2023-05-05T16:56:29.476Z,23.23
2023-05-05T17:11:31.238Z,22.00
2023-05-05T17:26:33.033Z,20.53
2023-05-05T17:41:34.803Z,19.87
2023-05-05T17:56:38.080Z,18.00
2023-05-05T18:11:39.745Z,17.10
2023-05-05T18:26:42.046Z,17.90
2023-05-05T18:41:43.787Z,16.47
2023-05-05T18:56:45.812Z,16.40
2023-05-05T19:11:47.502Z,13.00
2023-05-05T19:26:49.366Z,14.47
2023-05-05T19:41:51.086Z,15.80
2023-05-05T19:56:54.547Z,12.77
2023-05-05T20:11:58.835Z,13.40
2023-05-05T20:27:02.093Z,12.33
2023-05-05T20:42:03.929Z,12.40
2023-05-05T20:57:07.144Z,12.40
2023-05-05T21:12:08.786Z,12.87
2023-05-05T21:27:10.483Z,13.30
2023-05-05T21:42:12.183Z,13.53
2023-05-05T21:57:13.831Z,11.63
2023-05-05T22:12:16.367Z,11.70
2023-05-05T22:27:18.021Z,12.40
2023-05-05T22:42:19.703Z,10.97
2023-05-05T22:57:21.680Z,9.70
2023-05-05T23:12:23.323Z,11.50
2023-05-05T23:27:25.014Z,10.80
2023-05-05T23:42:26.713Z,10.00
2023-05-05T23:57:28.307Z,10.47
